sensor_id;sensor_type;location;lat;lon;timestamp;temperature;humidity
16532;DHT22;66872;63.142;14.482;2023-04-29T00:01:25;13.70;34.50
16532;DHT22;66872;63.142;14.482;2023-04-29T00:03:51;13.70;34.60
16532;DHT22;66872;63.142;14.482;2023-04-29T00:06:17;13.70;34.60
16532;DHT22;66872;63.142;14.482;2023-04-29T00:08:43;13.70;34.60
16532;DHT22;66872;63.142;14.482;2023-04-29T00:11:09;13.70;34.60
16532;DHT22;66872;63.142;14.482;2023-04-29T00:13:36;13.60;34.50
16532;DHT22;66872;63.142;14.482;2023-04-29T00:16:02;13.60;34.60
16532;DHT22;66872;63.142;14.482;2023-04-29T00:18:28;13.60;34.60
16532;DHT22;66872;63.142;14.482;2023-04-29T00:20:53;13.60;34.60
16532;DHT22;66872;63.142;14.482;2023-04-29T00:23:19;13.60;34.70
16532;DHT22;66872;63.142;14.482;2023-04-29T00:25:45;13.60;34.70
16532;DHT22;66872;63.142;14.482;2023-04-29T00:28:10;13.60;34.70
16532;DHT22;66872;63.142;14.482;2023-04-29T00:30:36;13.60;34.80
16532;DHT22;66872;63.142;14.482;2023-04-29T00:33:02;13.60;34.80
16532;DHT22;66872;63.142;14.482;2023-04-29T00:35:28;13.50;34.70
16532;DHT22;66872;63.142;14.482;2023-04-29T00:37:53;13.50;34.80
16532;DHT22;66872;63.142;14.482;2023-04-29T00:40:19;13.50;34.80
16532;DHT22;66872;63.142;14.482;2023-04-29T00:42:45;13.50;34.90
16532;DHT22;66872;63.142;14.482;2023-04-29T00:45:11;13.50;34.90
16532;DHT22;66872;63.142;14.482;2023-04-29T00:47:37;13.50;34.90
16532;DHT22;66872;63.142;14.482;2023-04-29T00:50:05;13.50;34.90
16532;DHT22;66872;63.142;14.482;2023-04-29T00:52:30;13.50;35.50
16532;DHT22;66872;63.142;14.482;2023-04-29T00:54:57;13.50;35.00
16532;DHT22;66872;63.142;14.482;2023-04-29T00:57:24;13.50;35.00
16532;DHT22;66872;63.142;14.482;2023-04-29T00:59:54;13.40;34.90
16532;DHT22;66872;63.142;14.482;2023-04-29T01:02:19;13.40;34.90
16532;DHT22;66872;63.142;14.482;2023-04-29T01:04:46;13.40;34.90
16532;DHT22;66872;63.142;14.482;2023-04-29T01:07:17;13.40;35.00
16532;DHT22;66872;63.142;14.482;2023-04-29T01:18:24;13.40;35.10
16532;DHT22;66872;63.142;14.482;2023-04-29T01:20:50;13.30;35.10
16532;DHT22;66872;63.142;14.482;2023-04-29T01:23:16;13.30;35.10
16532;DHT22;66872;63.142;14.482;2023-04-29T01:25:42;13.30;35.10
16532;DHT22;66872;63.142;14.482;2023-04-29T01:30:49;13.30;35.20
16532;DHT22;66872;63.142;14.482;2023-04-29T01:33:45;13.30;35.20
16532;DHT22;66872;63.142;14.482;2023-04-29T01:38:57;13.30;35.20
16532;DHT22;66872;63.142;14.482;2023-04-29T01:41:42;13.30;35.30
16532;DHT22;66872;63.142;14.482;2023-04-29T01:44:15;13.20;35.20
16532;DHT22;66872;63.142;14.482;2023-04-29T01:46:46;13.20;35.20
16532;DHT22;66872;63.142;14.482;2023-04-29T01:49:13;13.20;35.30
16532;DHT22;66872;63.142;14.482;2023-04-29T01:51:39;13.20;35.30
16532;DHT22;66872;63.142;14.482;2023-04-29T01:54:04;13.20;35.30
16532;DHT22;66872;63.142;14.482;2023-04-29T01:56:30;13.20;35.30
16532;DHT22;66872;63.142;14.482;2023-04-29T01:58:56;13.20;35.40
16532;DHT22;66872;63.142;14.482;2023-04-29T02:01:22;13.20;35.40
16532;DHT22;66872;63.142;14.482;2023-04-29T02:03:47;13.20;35.40
16532;DHT22;66872;63.142;14.482;2023-04-29T02:06:13;13.20;35.40
16532;DHT22;66872;63.142;14.482;2023-04-29T02:08:39;13.20;35.40
16532;DHT22;66872;63.142;14.482;2023-04-29T02:11:04;13.10;35.30
16532;DHT22;66872;63.142;14.482;2023-04-29T02:13:31;13.10;35.30
16532;DHT22;66872;63.142;14.482;2023-04-29T02:15:56;13.10;35.40
16532;DHT22;66872;63.142;14.482;2023-04-29T02:18:22;13.10;35.40
16532;DHT22;66872;63.142;14.482;2023-04-29T02:20:48;13.10;35.40
16532;DHT22;66872;63.142;14.482;2023-04-29T02:23:15;13.10;35.40
16532;DHT22;66872;63.142;14.482;2023-04-29T02:25:41;13.10;35.40
16532;DHT22;66872;63.142;14.482;2023-04-29T02:28:07;13.10;35.50
16532;DHT22;66872;63.142;14.482;2023-04-29T02:30:34;13.10;35.50
16532;DHT22;66872;63.142;14.482;2023-04-29T02:32:59;13.10;35.60
16532;DHT22;66872;63.142;14.482;2023-04-29T02:35:25;13.10;35.60
16532;DHT22;66872;63.142;14.482;2023-04-29T02:37:51;13.10;35.60
16532;DHT22;66872;63.142;14.482;2023-04-29T02:40:17;13.10;35.60
16532;DHT22;66872;63.142;14.482;2023-04-29T02:42:42;13.10;35.60
16532;DHT22;66872;63.142;14.482;2023-04-29T02:45:09;13.10;35.60
16532;DHT22;66872;63.142;14.482;2023-04-29T02:47:35;13.10;35.60
16532;DHT22;66872;63.142;14.482;2023-04-29T02:50:00;13.10;35.60
16532;DHT22;66872;63.142;14.482;2023-04-29T02:52:26;13.10;35.60
16532;DHT22;66872;63.142;14.482;2023-04-29T02:54:52;13.10;35.60
16532;DHT22;66872;63.142;14.482;2023-04-29T02:57:18;13.10;35.60
16532;DHT22;66872;63.142;14.482;2023-04-29T02:59:43;13.10;35.60
16532;DHT22;66872;63.142;14.482;2023-04-29T03:02:09;13.10;35.60
16532;DHT22;66872;63.142;14.482;2023-04-29T03:04:34;13.10;35.60
16532;DHT22;66872;63.142;14.482;2023-04-29T03:07:00;13.00;35.50
16532;DHT22;66872;63.142;14.482;2023-04-29T03:09:26;13.10;36.30
16532;DHT22;66872;63.142;14.482;2023-04-29T03:11:52;13.00;35.50
16532;DHT22;66872;63.142;14.482;2023-04-29T03:14:17;13.00;35.50
16532;DHT22;66872;63.142;14.482;2023-04-29T03:16:43;13.10;35.60
16532;DHT22;66872;63.142;14.482;2023-04-29T03:19:09;13.00;35.50
16532;DHT22;66872;63.142;14.482;2023-04-29T03:21:35;13.10;35.60
16532;DHT22;66872;63.142;14.482;2023-04-29T03:24:00;13.10;35.60
16532;DHT22;66872;63.142;14.482;2023-04-29T03:26:26;13.10;35.60
16532;DHT22;66872;63.142;14.482;2023-04-29T03:28:51;13.10;35.60
16532;DHT22;66872;63.142;14.482;2023-04-29T03:31:18;13.10;35.60
16532;DHT22;66872;63.142;14.482;2023-04-29T03:33:45;13.10;35.60
16532;DHT22;66872;63.142;14.482;2023-04-29T03:36:11;13.10;35.60
16532;DHT22;66872;63.142;14.482;2023-04-29T03:38:37;13.10;35.60
16532;DHT22;66872;63.142;14.482;2023-04-29T03:41:03;13.10;35.60
16532;DHT22;66872;63.142;14.482;2023-04-29T03:43:29;13.10;35.50
16532;DHT22;66872;63.142;14.482;2023-04-29T03:45:54;13.10;35.50
16532;DHT22;66872;63.142;14.482;2023-04-29T03:48:20;13.10;35.50
16532;DHT22;66872;63.142;14.482;2023-04-29T03:50:46;13.10;35.40
16532;DHT22;66872;63.142;14.482;2023-04-29T03:53:12;13.10;35.40
16532;DHT22;66872;63.142;14.482;2023-04-29T03:55:37;13.10;35.40
16532;DHT22;66872;63.142;14.482;2023-04-29T03:58:03;13.10;35.40
16532;DHT22;66872;63.142;14.482;2023-04-29T04:00:29;13.10;35.40
16532;DHT22;66872;63.142;14.482;2023-04-29T04:02:56;13.20;35.50
16532;DHT22;66872;63.142;14.482;2023-04-29T04:05:22;13.20;35.40
16532;DHT22;66872;63.142;14.482;2023-04-29T04:07:50;13.20;35.40
16532;DHT22;66872;63.142;14.482;2023-04-29T04:10:17;13.20;35.30
16532;DHT22;66872;63.142;14.482;2023-04-29T04:12:43;13.20;35.40
16532;DHT22;66872;63.142;14.482;2023-04-29T04:15:09;13.20;35.30
16532;DHT22;66872;63.142;14.482;2023-04-29T04:17:34;13.20;35.20
16532;DHT22;66872;63.142;14.482;2023-04-29T04:20:00;13.30;35.30
16532;DHT22;66872;63.142;14.482;2023-04-29T04:22:26;13.30;35.20
16532;DHT22;66872;63.142;14.482;2023-04-29T04:24:54;13.30;35.20
16532;DHT22;66872;63.142;14.482;2023-04-29T04:27:20;13.30;35.10
16532;DHT22;66872;63.142;14.482;2023-04-29T04:29:45;13.30;35.10
16532;DHT22;66872;63.142;14.482;2023-04-29T04:32:11;13.40;35.30
16532;DHT22;66872;63.142;14.482;2023-04-29T04:34:36;13.40;35.30
16532;DHT22;66872;63.142;14.482;2023-04-29T04:37:05;13.60;35.40
16532;DHT22;66872;63.142;14.482;2023-04-29T04:39:31;13.80;35.40
16532;DHT22;66872;63.142;14.482;2023-04-29T04:41:57;14.00;35.30
16532;DHT22;66872;63.142;14.482;2023-04-29T04:44:22;14.20;34.90
16532;DHT22;66872;63.142;14.482;2023-04-29T04:46:50;14.50;34.40
16532;DHT22;66872;63.142;14.482;2023-04-29T04:49:16;14.70;33.90
16532;DHT22;66872;63.142;14.482;2023-04-29T04:51:45;15.00;33.50
16532;DHT22;66872;63.142;14.482;2023-04-29T04:54:11;15.20;32.90
16532;DHT22;66872;63.142;14.482;2023-04-29T04:56:36;15.40;32.40
16532;DHT22;66872;63.142;14.482;2023-04-29T04:59:03;15.50;31.90
16532;DHT22;66872;63.142;14.482;2023-04-29T05:01:28;15.50;31.50
16532;DHT22;66872;63.142;14.482;2023-04-29T05:03:54;15.50;31.30
16532;DHT22;66872;63.142;14.482;2023-04-29T05:06:20;15.50;31.30
16532;DHT22;66872;63.142;14.482;2023-04-29T05:08:46;15.50;31.20
16532;DHT22;66872;63.142;14.482;2023-04-29T05:11:16;15.40;31.20
16532;DHT22;66872;63.142;14.482;2023-04-29T05:13:42;15.40;31.20
16532;DHT22;66872;63.142;14.482;2023-04-29T05:16:07;15.40;31.30
16532;DHT22;66872;63.142;14.482;2023-04-29T05:18:33;15.40;31.30
16532;DHT22;66872;63.142;14.482;2023-04-29T05:20:59;15.40;31.20
16532;DHT22;66872;63.142;14.482;2023-04-29T05:23:25;15.40;31.20
16532;DHT22;66872;63.142;14.482;2023-04-29T05:25:50;15.40;31.20
16532;DHT22;66872;63.142;14.482;2023-04-29T05:28:16;15.40;31.20
16532;DHT22;66872;63.142;14.482;2023-04-29T05:30:42;15.50;31.90
16532;DHT22;66872;63.142;14.482;2023-04-29T05:33:08;15.70;31.50
16532;DHT22;66872;63.142;14.482;2023-04-29T05:35:34;16.00;31.10
16532;DHT22;66872;63.142;14.482;2023-04-29T05:38:00;16.30;30.60
16532;DHT22;66872;63.142;14.482;2023-04-29T05:40:25;16.60;30.00
16532;DHT22;66872;63.142;14.482;2023-04-29T05:42:51;16.70;29.70
16532;DHT22;66872;63.142;14.482;2023-04-29T05:45:17;17.00;29.50
16532;DHT22;66872;63.142;14.482;2023-04-29T05:47:43;17.20;29.20
16532;DHT22;66872;63.142;14.482;2023-04-29T05:50:08;17.30;28.90
16532;DHT22;66872;63.142;14.482;2023-04-29T05:52:34;17.50;28.60
16532;DHT22;66872;63.142;14.482;2023-04-29T05:55:00;17.60;28.30
16532;DHT22;66872;63.142;14.482;2023-04-29T05:57:25;17.70;26.80
16532;DHT22;66872;63.142;14.482;2023-04-29T05:59:51;17.80;25.50
16532;DHT22;66872;63.142;14.482;2023-04-29T06:02:19;17.90;25.00
16532;DHT22;66872;63.142;14.482;2023-04-29T06:04:45;18.00;24.80
16532;DHT22;66872;63.142;14.482;2023-04-29T06:07:12;18.10;24.80
16532;DHT22;66872;63.142;14.482;2023-04-29T06:09:38;18.20;24.90
16532;DHT22;66872;63.142;14.482;2023-04-29T06:12:04;18.30;24.90
16532;DHT22;66872;63.142;14.482;2023-04-29T06:14:30;18.40;24.80
16532;DHT22;66872;63.142;14.482;2023-04-29T06:16:56;18.60;24.80
16532;DHT22;66872;63.142;14.482;2023-04-29T06:19:22;18.70;24.70
16532;DHT22;66872;63.142;14.482;2023-04-29T06:21:48;18.80;24.50
16532;DHT22;66872;63.142;14.482;2023-04-29T06:24:13;18.90;24.50
16532;DHT22;66872;63.142;14.482;2023-04-29T06:26:39;18.80;24.40
16532;DHT22;66872;63.142;14.482;2023-04-29T06:29:05;18.90;24.50
16532;DHT22;66872;63.142;14.482;2023-04-29T06:31:31;18.90;24.40
16532;DHT22;66872;63.142;14.482;2023-04-29T06:33:57;19.00;25.00
16532;DHT22;66872;63.142;14.482;2023-04-29T06:36:22;19.10;24.40
16532;DHT22;66872;63.142;14.482;2023-04-29T06:38:48;19.20;24.20
16532;DHT22;66872;63.142;14.482;2023-04-29T06:41:14;19.30;24.10
16532;DHT22;66872;63.142;14.482;2023-04-29T06:43:39;19.40;24.10
16532;DHT22;66872;63.142;14.482;2023-04-29T06:46:07;19.50;24.00
16532;DHT22;66872;63.142;14.482;2023-04-29T06:48:33;19.50;23.90
16532;DHT22;66872;63.142;14.482;2023-04-29T06:50:59;19.60;23.90
16532;DHT22;66872;63.142;14.482;2023-04-29T06:53:25;19.70;23.90
16532;DHT22;66872;63.142;14.482;2023-04-29T06:55:51;19.70;23.80
16532;DHT22;66872;63.142;14.482;2023-04-29T06:58:17;19.70;23.70
16532;DHT22;66872;63.142;14.482;2023-04-29T07:00:44;19.80;23.70
16532;DHT22;66872;63.142;14.482;2023-04-29T07:03:11;19.80;23.70
16532;DHT22;66872;63.142;14.482;2023-04-29T07:05:37;19.80;23.70
16532;DHT22;66872;63.142;14.482;2023-04-29T07:08:11;19.90;23.70
16532;DHT22;66872;63.142;14.482;2023-04-29T07:10:37;19.90;23.70
16532;DHT22;66872;63.142;14.482;2023-04-29T07:13:04;19.90;23.70
16532;DHT22;66872;63.142;14.482;2023-04-29T07:15:34;19.90;23.60
16532;DHT22;66872;63.142;14.482;2023-04-29T07:18:00;19.90;23.60
16532;DHT22;66872;63.142;14.482;2023-04-29T07:20:27;20.00;23.70
16532;DHT22;66872;63.142;14.482;2023-04-29T07:22:53;20.00;23.70
16532;DHT22;66872;63.142;14.482;2023-04-29T07:25:19;20.00;24.10
16532;DHT22;66872;63.142;14.482;2023-04-29T07:27:44;20.00;23.70
16532;DHT22;66872;63.142;14.482;2023-04-29T07:30:10;20.00;23.70
16532;DHT22;66872;63.142;14.482;2023-04-29T07:32:36;20.00;23.70
16532;DHT22;66872;63.142;14.482;2023-04-29T07:35:02;20.00;23.70
16532;DHT22;66872;63.142;14.482;2023-04-29T07:37:28;20.00;23.70
16532;DHT22;66872;63.142;14.482;2023-04-29T07:39:53;20.00;23.70
16532;DHT22;66872;63.142;14.482;2023-04-29T07:42:19;20.00;23.70
16532;DHT22;66872;63.142;14.482;2023-04-29T07:44:45;20.00;23.80
16532;DHT22;66872;63.142;14.482;2023-04-29T07:47:13;20.00;23.70
16532;DHT22;66872;63.142;14.482;2023-04-29T07:49:39;20.00;23.80
16532;DHT22;66872;63.142;14.482;2023-04-29T07:52:06;20.00;23.80
16532;DHT22;66872;63.142;14.482;2023-04-29T07:54:34;20.00;23.80
16532;DHT22;66872;63.142;14.482;2023-04-29T07:57:00;20.00;23.80
16532;DHT22;66872;63.142;14.482;2023-04-29T07:59:28;19.90;23.80
16532;DHT22;66872;63.142;14.482;2023-04-29T08:01:53;19.90;23.90
16532;DHT22;66872;63.142;14.482;2023-04-29T08:04:20;19.90;24.00
16532;DHT22;66872;63.142;14.482;2023-04-29T08:06:45;19.80;24.00
16532;DHT22;66872;63.142;14.482;2023-04-29T08:09:11;19.80;24.00
16532;DHT22;66872;63.142;14.482;2023-04-29T08:11:37;19.80;24.00
16532;DHT22;66872;63.142;14.482;2023-04-29T08:14:04;19.80;24.10
16532;DHT22;66872;63.142;14.482;2023-04-29T08:16:30;19.90;24.10
16532;DHT22;66872;63.142;14.482;2023-04-29T08:18:56;19.90;24.10
16532;DHT22;66872;63.142;14.482;2023-04-29T08:21:22;20.00;24.10
16532;DHT22;66872;63.142;14.482;2023-04-29T08:23:48;19.90;24.00
16532;DHT22;66872;63.142;14.482;2023-04-29T08:26:14;20.00;24.00
16532;DHT22;66872;63.142;14.482;2023-04-29T08:28:39;20.00;24.00
16532;DHT22;66872;63.142;14.482;2023-04-29T08:31:05;20.00;24.10
16532;DHT22;66872;63.142;14.482;2023-04-29T08:33:34;20.00;24.10
16532;DHT22;66872;63.142;14.482;2023-04-29T08:35:59;19.90;24.10
16532;DHT22;66872;63.142;14.482;2023-04-29T08:38:28;20.00;24.20
16532;DHT22;66872;63.142;14.482;2023-04-29T08:40:54;19.90;24.10
16532;DHT22;66872;63.142;14.482;2023-04-29T08:43:21;19.90;24.30
16532;DHT22;66872;63.142;14.482;2023-04-29T08:45:49;19.80;24.20
16532;DHT22;66872;63.142;14.482;2023-04-29T08:48:16;19.80;24.20
16532;DHT22;66872;63.142;14.482;2023-04-29T08:50:42;19.80;24.30
16532;DHT22;66872;63.142;14.482;2023-04-29T08:53:10;19.80;24.30
16532;DHT22;66872;63.142;14.482;2023-04-29T08:55:41;19.80;24.50
16532;DHT22;66872;63.142;14.482;2023-04-29T08:58:08;19.80;24.90
16532;DHT22;66872;63.142;14.482;2023-04-29T09:00:35;19.80;24.40
16532;DHT22;66872;63.142;14.482;2023-04-29T09:03:08;19.80;24.40
16532;DHT22;66872;63.142;14.482;2023-04-29T09:05:37;19.70;24.40
16532;DHT22;66872;63.142;14.482;2023-04-29T09:08:07;19.70;24.40
16532;DHT22;66872;63.142;14.482;2023-04-29T09:10:35;19.70;24.50
16532;DHT22;66872;63.142;14.482;2023-04-29T09:13:00;19.70;24.60
16532;DHT22;66872;63.142;14.482;2023-04-29T09:15:26;19.70;24.60
16532;DHT22;66872;63.142;14.482;2023-04-29T09:17:52;19.60;24.60
16532;DHT22;66872;63.142;14.482;2023-04-29T09:22:52;19.50;24.80
16532;DHT22;66872;63.142;14.482;2023-04-29T09:25:18;19.50;24.80
16532;DHT22;66872;63.142;14.482;2023-04-29T09:27:44;19.40;24.80
16532;DHT22;66872;63.142;14.482;2023-04-29T09:30:10;19.40;24.90
16532;DHT22;66872;63.142;14.482;2023-04-29T09:32:37;19.40;25.00
16532;DHT22;66872;63.142;14.482;2023-04-29T09:35:25;19.30;25.00
16532;DHT22;66872;63.142;14.482;2023-04-29T09:37:52;19.30;25.00
16532;DHT22;66872;63.142;14.482;2023-04-29T09:40:31;19.30;25.20
16532;DHT22;66872;63.142;14.482;2023-04-29T09:42:58;19.20;25.20
16532;DHT22;66872;63.142;14.482;2023-04-29T09:45:40;19.20;25.20
16532;DHT22;66872;63.142;14.482;2023-04-29T09:48:07;19.20;25.20
16532;DHT22;66872;63.142;14.482;2023-04-29T09:50:38;19.10;25.20
16532;DHT22;66872;63.142;14.482;2023-04-29T09:53:05;19.10;25.20
16532;DHT22;66872;63.142;14.482;2023-04-29T09:55:57;19.10;25.30
16532;DHT22;66872;63.142;14.482;2023-04-29T09:58:33;19.10;25.30
16532;DHT22;66872;63.142;14.482;2023-04-29T10:01:03;19.10;25.40
16532;DHT22;66872;63.142;14.482;2023-04-29T10:03:34;19.10;25.30
16532;DHT22;66872;63.142;14.482;2023-04-29T10:06:00;19.10;25.40
16532;DHT22;66872;63.142;14.482;2023-04-29T10:08:28;19.10;25.40
16532;DHT22;66872;63.142;14.482;2023-04-29T10:11:02;19.10;25.50
16532;DHT22;66872;63.142;14.482;2023-04-29T10:13:28;19.00;25.30
16532;DHT22;66872;63.142;14.482;2023-04-29T10:16:14;19.00;25.40
16532;DHT22;66872;63.142;14.482;2023-04-29T10:18:50;19.10;25.50
16532;DHT22;66872;63.142;14.482;2023-04-29T10:21:17;19.00;25.50
16532;DHT22;66872;63.142;14.482;2023-04-29T10:23:45;19.00;25.50
16532;DHT22;66872;63.142;14.482;2023-04-29T10:26:11;19.00;25.60
16532;DHT22;66872;63.142;14.482;2023-04-29T10:28:39;18.90;25.50
16532;DHT22;66872;63.142;14.482;2023-04-29T10:31:08;18.90;25.70
16532;DHT22;66872;63.142;14.482;2023-04-29T10:33:34;18.90;25.70
16532;DHT22;66872;63.142;14.482;2023-04-29T10:36:02;18.90;25.70
16532;DHT22;66872;63.142;14.482;2023-04-29T10:38:39;18.90;25.70
16532;DHT22;66872;63.142;14.482;2023-04-29T10:41:26;18.90;25.80
16532;DHT22;66872;63.142;14.482;2023-04-29T10:43:54;18.90;25.80
16532;DHT22;66872;63.142;14.482;2023-04-29T10:46:24;18.80;25.80
16532;DHT22;66872;63.142;14.482;2023-04-29T10:49:01;18.80;25.80
16532;DHT22;66872;63.142;14.482;2023-04-29T10:51:44;18.80;25.80
16532;DHT22;66872;63.142;14.482;2023-04-29T10:54:15;18.80;25.80
16532;DHT22;66872;63.142;14.482;2023-04-29T10:56:47;18.80;25.80
16532;DHT22;66872;63.142;14.482;2023-04-29T10:59:20;18.80;25.80
16532;DHT22;66872;63.142;14.482;2023-04-29T11:01:53;18.80;25.80
16532;DHT22;66872;63.142;14.482;2023-04-29T11:04:20;18.80;25.90
16532;DHT22;66872;63.142;14.482;2023-04-29T11:06:51;18.80;25.90
16532;DHT22;66872;63.142;14.482;2023-04-29T11:09:24;18.80;25.90
16532;DHT22;66872;63.142;14.482;2023-04-29T11:11:58;18.80;25.90
16532;DHT22;66872;63.142;14.482;2023-04-29T11:14:36;18.80;25.90
16532;DHT22;66872;63.142;14.482;2023-04-29T11:17:08;18.80;25.90
16532;DHT22;66872;63.142;14.482;2023-04-29T11:19:40;18.70;25.90
16532;DHT22;66872;63.142;14.482;2023-04-29T11:27:18;18.70;26.00
16532;DHT22;66872;63.142;14.482;2023-04-29T11:29:45;18.70;26.00
16532;DHT22;66872;63.142;14.482;2023-04-29T11:32:11;18.70;26.00
16532;DHT22;66872;63.142;14.482;2023-04-29T11:34:37;18.70;26.00
16532;DHT22;66872;63.142;14.482;2023-04-29T11:37:04;18.70;26.10
16532;DHT22;66872;63.142;14.482;2023-04-29T11:39:33;18.70;26.10
16532;DHT22;66872;63.142;14.482;2023-04-29T11:42:04;18.60;26.10
16532;DHT22;66872;63.142;14.482;2023-04-29T11:44:35;18.70;26.20
16532;DHT22;66872;63.142;14.482;2023-04-29T11:47:07;18.60;26.20
16532;DHT22;66872;63.142;14.482;2023-04-29T11:49:34;18.50;26.20
16532;DHT22;66872;63.142;14.482;2023-04-29T11:52:00;18.50;26.20
16532;DHT22;66872;63.142;14.482;2023-04-29T11:54:27;18.50;26.30
16532;DHT22;66872;63.142;14.482;2023-04-29T11:56:54;18.50;26.80
16532;DHT22;66872;63.142;14.482;2023-04-29T11:59:20;18.50;26.40
16532;DHT22;66872;63.142;14.482;2023-04-29T12:01:50;18.40;26.40
16532;DHT22;66872;63.142;14.482;2023-04-29T12:04:17;18.40;26.40
16532;DHT22;66872;63.142;14.482;2023-04-29T12:06:44;18.40;26.50
16532;DHT22;66872;63.142;14.482;2023-04-29T12:09:11;18.40;26.60
16532;DHT22;66872;63.142;14.482;2023-04-29T12:11:37;18.30;26.50
16532;DHT22;66872;63.142;14.482;2023-04-29T12:14:03;18.30;26.50
16532;DHT22;66872;63.142;14.482;2023-04-29T12:16:32;18.40;26.60
16532;DHT22;66872;63.142;14.482;2023-04-29T12:18:58;18.40;26.60
16532;DHT22;66872;63.142;14.482;2023-04-29T12:21:24;18.30;26.50
16532;DHT22;66872;63.142;14.482;2023-04-29T12:23:52;18.30;26.60
16532;DHT22;66872;63.142;14.482;2023-04-29T12:26:19;18.30;26.70
16532;DHT22;66872;63.142;14.482;2023-04-29T12:28:53;18.30;26.60
16532;DHT22;66872;63.142;14.482;2023-04-29T12:31:18;18.30;26.70
16532;DHT22;66872;63.142;14.482;2023-04-29T12:33:44;18.30;26.60
16532;DHT22;66872;63.142;14.482;2023-04-29T12:36:17;18.30;26.70
16532;DHT22;66872;63.142;14.482;2023-04-29T12:38:44;18.30;26.70
16532;DHT22;66872;63.142;14.482;2023-04-29T12:41:11;18.30;26.70
16532;DHT22;66872;63.142;14.482;2023-04-29T12:43:40;18.30;26.70
16532;DHT22;66872;63.142;14.482;2023-04-29T12:46:07;18.30;26.70
16532;DHT22;66872;63.142;14.482;2023-04-29T12:48:35;18.30;26.70
16532;DHT22;66872;63.142;14.482;2023-04-29T12:51:10;18.30;26.70
16532;DHT22;66872;63.142;14.482;2023-04-29T12:53:37;18.30;26.70
16532;DHT22;66872;63.142;14.482;2023-04-29T12:56:04;18.30;26.70
16532;DHT22;66872;63.142;14.482;2023-04-29T12:58:30;18.30;26.70
16532;DHT22;66872;63.142;14.482;2023-04-29T13:00:57;18.30;26.70
16532;DHT22;66872;63.142;14.482;2023-04-29T13:03:22;18.30;26.70
16532;DHT22;66872;63.142;14.482;2023-04-29T13:05:48;18.40;26.80
16532;DHT22;66872;63.142;14.482;2023-04-29T13:08:18;18.30;26.70
16532;DHT22;66872;63.142;14.482;2023-04-29T13:10:44;18.30;26.70
16532;DHT22;66872;63.142;14.482;2023-04-29T13:13:10;18.30;26.70
16532;DHT22;66872;63.142;14.482;2023-04-29T13:15:36;18.30;26.80
16532;DHT22;66872;63.142;14.482;2023-04-29T13:18:04;18.30;26.80
16532;DHT22;66872;63.142;14.482;2023-04-29T13:20:29;18.30;26.90
16532;DHT22;66872;63.142;14.482;2023-04-29T13:22:55;18.30;26.80
16532;DHT22;66872;63.142;14.482;2023-04-29T13:25:20;18.20;26.80
16532;DHT22;66872;63.142;14.482;2023-04-29T13:27:46;18.20;26.80
16532;DHT22;66872;63.142;14.482;2023-04-29T13:30:12;18.20;26.90
16532;DHT22;66872;63.142;14.482;2023-04-29T13:32:38;18.20;26.90
16532;DHT22;66872;63.142;14.482;2023-04-29T13:35:05;18.20;27.00
16532;DHT22;66872;63.142;14.482;2023-04-29T13:37:31;18.20;27.00
16532;DHT22;66872;63.142;14.482;2023-04-29T13:39:57;18.20;27.00
16532;DHT22;66872;63.142;14.482;2023-04-29T13:42:22;18.20;27.00
16532;DHT22;66872;63.142;14.482;2023-04-29T13:44:48;18.20;27.10
16532;DHT22;66872;63.142;14.482;2023-04-29T13:47:15;18.20;27.10
16532;DHT22;66872;63.142;14.482;2023-04-29T13:49:42;18.10;27.10
16532;DHT22;66872;63.142;14.482;2023-04-29T13:52:11;18.20;27.10
16532;DHT22;66872;63.142;14.482;2023-04-29T13:54:37;18.10;27.10
16532;DHT22;66872;63.142;14.482;2023-04-29T13:57:03;18.10;27.20
16532;DHT22;66872;63.142;14.482;2023-04-29T13:59:33;18.10;27.10
16532;DHT22;66872;63.142;14.482;2023-04-29T14:01:59;18.10;27.10
16532;DHT22;66872;63.142;14.482;2023-04-29T14:04:26;18.10;27.20
16532;DHT22;66872;63.142;14.482;2023-04-29T14:06:53;18.10;27.20
16532;DHT22;66872;63.142;14.482;2023-04-29T14:09:20;18.10;27.10
16532;DHT22;66872;63.142;14.482;2023-04-29T14:11:47;18.10;27.20
16532;DHT22;66872;63.142;14.482;2023-04-29T14:14:13;18.10;27.20
16532;DHT22;66872;63.142;14.482;2023-04-29T14:16:39;18.10;27.20
16532;DHT22;66872;63.142;14.482;2023-04-29T14:19:05;18.10;27.20
16532;DHT22;66872;63.142;14.482;2023-04-29T14:21:31;18.10;27.20
16532;DHT22;66872;63.142;14.482;2023-04-29T14:24:01;18.10;27.20
16532;DHT22;66872;63.142;14.482;2023-04-29T14:26:28;18.10;27.20
16532;DHT22;66872;63.142;14.482;2023-04-29T14:28:54;18.10;27.20
16532;DHT22;66872;63.142;14.482;2023-04-29T14:31:32;18.00;27.20
16532;DHT22;66872;63.142;14.482;2023-04-29T14:33:59;18.10;27.30
16532;DHT22;66872;63.142;14.482;2023-04-29T14:36:25;18.00;27.30
16532;DHT22;66872;63.142;14.482;2023-04-29T14:38:53;18.00;27.40
16532;DHT22;66872;63.142;14.482;2023-04-29T14:41:19;17.90;27.30
16532;DHT22;66872;63.142;14.482;2023-04-29T14:43:47;17.90;27.40
16532;DHT22;66872;63.142;14.482;2023-04-29T14:46:13;17.90;27.40
16532;DHT22;66872;63.142;14.482;2023-04-29T14:48:39;17.90;27.50
16532;DHT22;66872;63.142;14.482;2023-04-29T14:51:05;17.90;27.50
16532;DHT22;66872;63.142;14.482;2023-04-29T14:53:31;17.90;27.50
16532;DHT22;66872;63.142;14.482;2023-04-29T14:55:57;17.90;27.50
16532;DHT22;66872;63.142;14.482;2023-04-29T14:58:23;17.90;27.60
16532;DHT22;66872;63.142;14.482;2023-04-29T15:00:48;17.90;27.50
16532;DHT22;66872;63.142;14.482;2023-04-29T15:03:16;17.80;27.50
16532;DHT22;66872;63.142;14.482;2023-04-29T15:05:42;17.80;27.50
16532;DHT22;66872;63.142;14.482;2023-04-29T15:08:08;17.80;27.60
16532;DHT22;66872;63.142;14.482;2023-04-29T15:10:33;17.80;27.60
16532;DHT22;66872;63.142;14.482;2023-04-29T15:12:59;17.80;27.60
16532;DHT22;66872;63.142;14.482;2023-04-29T15:15:25;17.80;27.60
16532;DHT22;66872;63.142;14.482;2023-04-29T15:17:51;17.80;27.70
16532;DHT22;66872;63.142;14.482;2023-04-29T15:20:17;17.80;27.70
16532;DHT22;66872;63.142;14.482;2023-04-29T15:22:43;17.80;27.70
16532;DHT22;66872;63.142;14.482;2023-04-29T15:25:09;17.80;27.70
16532;DHT22;66872;63.142;14.482;2023-04-29T15:27:35;17.80;27.70
16532;DHT22;66872;63.142;14.482;2023-04-29T15:30:02;17.70;27.70
16532;DHT22;66872;63.142;14.482;2023-04-29T15:32:29;17.70;27.70
16532;DHT22;66872;63.142;14.482;2023-04-29T15:34:58;17.70;27.70
16532;DHT22;66872;63.142;14.482;2023-04-29T15:37:25;17.70;27.70